This demonstration page uses our WeatherBlox Daily Observations layout. Learn more.

Left ArrowRight Arrow

39.92423, -83.80882

Hourly Observations for January 29, 2020

Temp ( °F °C ) Dew Point ( °F °C ) Humidity (%) Winds ( mph kmh ) Pressure ( in mb ) Visibility ( mi km ) Precip ( " mm )
12:56 am 00:56 Cloudy with Mist and Fog 31 -0.6 29 -1.7 92 92 Calm 30.14 1021 6 9.65604 0 0
1:56 am 01:56 Cloudy 31 -0.6 30 -1.1 96 96 Calm 30.14 1021 7 11.26538 0 0
2:56 am 02:56 Cloudy with Mist and Fog 30 -1.1 30 -1.1 100 100 Calm 30.14 1021 6 9.65604 0 0
3:56 am 03:56 Cloudy 30 -1.1 30 -1.1 100 100 Calm 30.13 1020 7 11.26538 0 0
4:56 am 04:56 Cloudy 30 -1.1 30 -1.1 100 100 Calm 30.14 1021 8 12.87472 0 0
5:05 am 05:05 Cloudy 30 -1 30 -1 100 100 Calm 30.17 1022 8 12.87472 0 0
5:56 am 05:56 Cloudy 31 -0.6 29 -1.7 92 92 Calm 30.16 1021 9 14.48406 0 0
6:56 am 06:56 Cloudy 30 -1.1 30 -1.1 100 100 Calm 30.18 1022 9 14.48406 0 0
7:56 am 07:56 Cloudy with Light Wintry Mix 30 -1.1 30 -1.1 100 100 E 5 7 30.19 1022 6 9.65604 0 0
8:56 am 08:56 Cloudy 30 -1.1 30 -1.1 100 100 E 3 6 30.2 1023 7 11.26538 0 0
9:56 am 09:56 Cloudy 31 -0.6 29 -1.7 92 92 ENE 6 9 30.21 1023 10 16.0934 0 0
10:56 am 10:56 Cloudy 31 -0.6 26 -3.3 82 82 ENE 7 11 30.21 1023 10 16.0934 0 0
11:56 am 11:56 Cloudy 32 0 25 -3.9 75 75 ENE 5 7 30.2 1023 10 16.0934 0 0
12:56 pm 12:56 Cloudy 32 0 26 -3.3 79 79 ENE 5 7 30.17 1022 10 16.0934 0 0
1:56 pm 13:56 Cloudy 32 0 26 -3.3 79 79 ENE 8 13 30.15 1021 10 16.0934 0 0
2:56 pm 14:56 Cloudy 32 0 26 -3.3 79 79 ENE 8 13 30.14 1021 10 16.0934 0 0
3:56 pm 15:56 Cloudy 32 0 27 -2.8 82 82 ENE 7 11 30.15 1021 10 16.0934 0 0
4:56 pm 16:56 Cloudy 32 0 25 -3.9 75 75 E 8 13 30.16 1021 10 16.0934 0 0
5:56 pm 17:56 Cloudy 31 -0.6 27 -2.8 85 85 ENE 6 9 30.17 1022 10 16.0934 0 0
6:56 pm 18:56 Cloudy 31 -0.6 27 -2.8 85 85 NE 5 7 30.2 1023 10 16.0934 0 0
7:56 pm 19:56 Cloudy 31 -0.6 27 -2.8 85 85 NE 7 11 30.2 1023 10 16.0934 0.18 4.572
8:56 pm 20:56 Cloudy 31 -0.6 27 -2.8 85 85 NE 8 13 30.19 1022 10 16.0934 0 0
9:56 pm 21:56 Cloudy 30 -1.1 26 -3.3 85 85 ENE 6 9 30.2 1023 10 16.0934 0 0
10:53 pm 22:53 Cloudy 30 -1 27 -3 86 86 NE 6 9 30.22 1023 10 16.0934 0 0
10:56 pm 22:56 Cloudy 30 -1.1 26 -3.3 85 85 NE 6 9 30.2 1023 10 16.0934 0 0
11:56 pm 23:56 Cloudy 30 -1.1 25 -3.9 82 82 NE 6 9 30.2 1023 10 16.0934 0 0

Powered by AerisWeather